createdAt,value
2019-03-29T00:00:06.421Z,83.07
2019-03-29T00:01:06.279Z,84.42
2019-03-29T00:02:06.268Z,83.80
2019-03-29T00:03:06.256Z,83.53
2019-03-29T00:04:06.225Z,84.56
2019-03-29T00:05:06.220Z,84.45
2019-03-29T00:06:06.192Z,83.63
2019-03-29T00:07:06.205Z,83.94
2019-03-29T00:08:06.202Z,83.84
2019-03-29T00:09:06.160Z,83.94
2019-03-29T00:10:06.152Z,83.63
2019-03-29T00:11:06.153Z,83.36
2019-03-29T00:12:06.131Z,83.77
2019-03-29T00:13:06.136Z,84.59
2019-03-29T00:14:06.104Z,84.59
2019-03-29T00:15:06.126Z,84.59
2019-03-29T00:16:06.100Z,84.59
2019-03-29T00:17:06.073Z,84.80
2019-03-29T00:18:06.060Z,84.74
2019-03-29T00:19:06.060Z,85.05
2019-03-29T00:20:06.437Z,84.94
2019-03-29T00:21:06.025Z,85.25
2019-03-29T00:22:06.016Z,85.67
2019-03-29T00:23:06.009Z,86.90
2019-03-29T00:24:07.189Z,86.84
2019-03-29T00:25:07.054Z,86.94
2019-03-29T00:26:05.968Z,86.70
2019-03-29T00:27:05.956Z,86.63
2019-03-29T00:28:05.950Z,87.46
2019-03-29T00:29:05.937Z,87.26
2019-03-29T00:30:05.924Z,87.26
2019-03-29T00:31:05.932Z,87.40
2019-03-29T00:32:06.076Z,87.35
2019-03-29T00:33:05.897Z,87.81
2019-03-29T00:34:05.881Z,88.02
2019-03-29T00:35:05.869Z,87.81
2019-03-29T00:36:05.856Z,88.43
2019-03-29T00:37:05.868Z,88.43
2019-03-29T00:38:05.849Z,88.43
2019-03-29T00:39:05.825Z,89.05
2019-03-29T00:40:06.313Z,88.74
2019-03-29T00:41:05.801Z,89.87
2019-03-29T00:42:05.787Z,89.87
2019-03-29T00:43:05.783Z,90.28
2019-03-29T00:44:05.772Z,89.87
2019-03-29T00:45:05.756Z,89.40
2019-03-29T00:46:05.746Z,89.87
2019-03-29T00:47:05.731Z,89.92
2019-03-29T00:48:05.720Z,88.98
2019-03-29T00:49:05.738Z,89.19
2019-03-29T00:50:06.313Z,88.89
2019-03-29T00:51:05.687Z,88.57
2019-03-29T00:52:05.673Z,88.57
2019-03-29T00:53:05.672Z,88.57
2019-03-29T00:54:05.654Z,88.78
2019-03-29T00:55:05.660Z,88.61
2019-03-29T00:56:05.638Z,88.51
2019-03-29T00:57:05.621Z,88.20
2019-03-29T00:58:05.634Z,88.47
2019-03-29T00:59:05.595Z,88.31
2019-03-29T01:00:06.889Z,88.61
2019-03-29T01:01:05.576Z,88.71
2019-03-29T01:02:05.559Z,88.61
2019-03-29T01:03:05.549Z,88.82
2019-03-29T01:04:05.547Z,88.51
2019-03-29T01:05:05.556Z,88.51
2019-03-29T01:06:05.552Z,88.51
2019-03-29T01:07:05.521Z,88.92
2019-03-29T01:08:08.195Z,88.92
2019-03-29T01:09:05.498Z,90.00
2019-03-29T01:10:05.476Z,89.69
2019-03-29T01:11:05.459Z,90.20
2019-03-29T01:12:06.251Z,90.62
2019-03-29T01:13:05.439Z,90.58
2019-03-29T01:14:05.427Z,91.24
2019-03-29T01:15:05.421Z,90.52
2019-03-29T01:16:05.404Z,90.41
2019-03-29T01:17:05.391Z,90.52
2019-03-29T01:18:05.396Z,90.31
2019-03-29T01:19:05.368Z,90.10
2019-03-29T01:20:05.412Z,90.10
2019-03-29T01:21:05.349Z,90.10
2019-03-29T01:22:05.989Z,90.87
2019-03-29T01:23:05.360Z,90.35
2019-03-29T01:24:05.319Z,90.41
2019-03-29T01:25:05.342Z,90.35
2019-03-29T01:26:05.292Z,90.35
2019-03-29T01:27:05.288Z,90.35
2019-03-29T01:28:05.276Z,90.25
2019-03-29T01:29:05.276Z,90.45
2019-03-29T01:30:05.248Z,90.77
2019-03-29T01:31:05.240Z,90.56
2019-03-29T01:32:05.238Z,91.07
2019-03-29T01:33:05.218Z,90.70
2019-03-29T01:34:05.212Z,91.49
2019-03-29T01:35:05.193Z,91.80
2019-03-29T01:36:05.191Z,91.84
2019-03-29T01:37:05.175Z,91.32
2019-03-29T01:38:05.152Z,92.11
2019-03-29T01:39:05.172Z,92.25
2019-03-29T01:40:05.147Z,92.52
2019-03-29T01:41:05.137Z,92.52
2019-03-29T01:42:05.125Z,92.77
2019-03-29T01:43:05.108Z,92.57
2019-03-29T01:44:05.111Z,92.36
2019-03-29T01:45:05.077Z,92.46
2019-03-29T01:46:05.068Z,92.77
2019-03-29T01:47:05.056Z,92.57
2019-03-29T01:48:05.044Z,92.50
2019-03-29T01:49:05.040Z,93.23
2019-03-29T01:50:05.048Z,92.30
2019-03-29T01:51:05.008Z,92.50
2019-03-29T01:52:05.023Z,93.12
2019-03-29T01:53:05.012Z,93.33
2019-03-29T01:54:04.995Z,92.25
2019-03-29T01:55:04.964Z,92.71
2019-03-29T01:56:04.956Z,92.50
2019-03-29T01:57:04.944Z,93.33
2019-03-29T01:58:04.932Z,92.30
2019-03-29T01:59:04.964Z,92.50
2019-03-29T02:00:04.909Z,92.40
2019-03-29T02:01:04.911Z,92.71
2019-03-29T02:02:04.889Z,92.71
2019-03-29T02:03:04.890Z,93.33
2019-03-29T02:04:06.000Z,93.02
2019-03-29T02:05:04.914Z,93.02
2019-03-29T02:06:04.844Z,93.43
2019-03-29T02:07:04.832Z,93.12
2019-03-29T02:08:05.042Z,92.71
2019-03-29T02:09:05.100Z,92.96
2019-03-29T02:10:04.804Z,93.02
2019-03-29T02:11:04.800Z,93.43
2019-03-29T02:12:04.784Z,93.85
2019-03-29T02:13:04.786Z,93.54
2019-03-29T02:14:04.754Z,93.27
2019-03-29T02:15:04.744Z,94.16
2019-03-29T02:16:04.752Z,93.43
2019-03-29T02:17:04.720Z,93.89
2019-03-29T02:18:04.715Z,93.43
2019-03-29T02:19:05.262Z,93.54
2019-03-29T02:20:04.688Z,93.27
2019-03-29T02:21:04.680Z,93.16
2019-03-29T02:22:04.687Z,92.76
2019-03-29T02:23:04.652Z,93.27
2019-03-29T02:24:04.652Z,93.06
2019-03-29T02:25:04.632Z,93.16
2019-03-29T02:26:04.620Z,93.48
2019-03-29T02:27:04.610Z,93.68
2019-03-29T02:28:04.612Z,93.48
2019-03-29T02:29:04.584Z,93.58
2019-03-29T02:30:05.089Z,93.27
2019-03-29T02:31:04.566Z,93.27
2019-03-29T02:32:04.556Z,92.96
2019-03-29T02:33:04.570Z,92.80
2019-03-29T02:34:04.533Z,93.16
2019-03-29T02:35:04.530Z,93.21
2019-03-29T02:36:05.658Z,93.41
2019-03-29T02:37:04.513Z,94.24
2019-03-29T02:38:04.491Z,94.20
2019-03-29T02:39:04.498Z,95.07
2019-03-29T02:40:04.473Z,94.72
2019-03-29T02:41:04.457Z,95.03
2019-03-29T02:42:04.442Z,94.51
2019-03-29T02:43:04.432Z,94.82
2019-03-29T02:44:04.458Z,94.62
2019-03-29T02:45:04.443Z,94.04
2019-03-29T02:46:04.396Z,94.10
2019-03-29T02:47:04.389Z,93.99
2019-03-29T02:48:04.380Z,93.89
2019-03-29T02:49:04.370Z,93.89
2019-03-29T02:50:04.397Z,94.24
2019-03-29T02:51:04.829Z,93.93
2019-03-29T02:52:04.333Z,93.62
2019-03-29T02:53:04.316Z,94.14
2019-03-29T02:54:04.320Z,94.35
2019-03-29T02:55:04.298Z,94.24
2019-03-29T02:56:04.304Z,94.31
2019-03-29T02:57:04.272Z,93.93
2019-03-29T02:58:04.264Z,94.14
2019-03-29T02:59:04.256Z,94.14
2019-03-29T03:00:04.250Z,93.83
2019-03-29T03:01:04.247Z,93.62
2019-03-29T03:02:04.229Z,93.52
2019-03-29T03:03:04.209Z,93.41
2019-03-29T03:04:04.295Z,93.52
2019-03-29T03:05:04.184Z,93.52
2019-03-29T03:06:04.279Z,94.04
2019-03-29T03:07:04.173Z,94.24
2019-03-29T03:08:04.149Z,94.04
2019-03-29T03:09:13.154Z,94.87
2019-03-29T03:10:05.131Z,95.70
2019-03-29T03:11:04.152Z,94.35
2019-03-29T03:12:04.110Z,95.39
2019-03-29T03:13:04.112Z,94.24
2019-03-29T03:14:04.091Z,95.59
2019-03-29T03:15:04.124Z,95.80
2019-03-29T03:16:04.065Z,94.45
2019-03-29T03:17:04.053Z,94.76
2019-03-29T03:18:04.046Z,94.76
2019-03-29T03:19:04.043Z,94.87
2019-03-29T03:20:04.017Z,94.97
2019-03-29T03:21:04.016Z,94.76
2019-03-29T03:22:03.999Z,94.66
2019-03-29T03:23:04.016Z,94.66
2019-03-29T03:24:03.997Z,94.81
2019-03-29T03:25:03.966Z,95.07
2019-03-29T03:26:03.990Z,95.64
2019-03-29T03:27:03.936Z,94.35
2019-03-29T03:28:03.937Z,94.91
2019-03-29T03:29:03.996Z,95.43
2019-03-29T03:30:03.912Z,94.29
2019-03-29T03:31:03.899Z,95.53
2019-03-29T03:32:03.897Z,95.53
2019-03-29T03:33:03.874Z,94.49
2019-03-29T03:34:03.873Z,95.53
2019-03-29T03:35:03.849Z,94.39
2019-03-29T03:36:03.845Z,95.49
2019-03-29T03:37:03.828Z,95.43
2019-03-29T03:38:03.829Z,94.97
2019-03-29T03:39:03.813Z,95.22
2019-03-29T03:40:03.802Z,95.22
2019-03-29T03:41:03.783Z,95.22
2019-03-29T03:42:03.793Z,95.12
2019-03-29T03:43:03.782Z,95.01
2019-03-29T03:44:03.759Z,95.12
2019-03-29T03:45:03.736Z,95.22
2019-03-29T03:46:03.726Z,94.91
2019-03-29T03:47:03.716Z,95.43
2019-03-29T03:48:03.705Z,95.12
2019-03-29T03:49:03.719Z,95.01
2019-03-29T03:50:03.685Z,94.70
2019-03-29T03:51:03.669Z,94.81
2019-03-29T03:52:03.677Z,95.53
2019-03-29T03:53:03.656Z,95.43
2019-03-29T03:54:03.652Z,96.05
2019-03-29T03:55:03.640Z,96.05
2019-03-29T03:56:03.613Z,95.64
2019-03-29T03:57:03.604Z,95.64
2019-03-29T03:58:03.589Z,95.64
2019-03-29T03:59:03.588Z,95.84
2019-03-29T04:00:03.593Z,95.64
2019-03-29T04:01:03.581Z,95.84
2019-03-29T04:02:03.545Z,95.84
2019-03-29T04:03:03.545Z,95.95
2019-03-29T04:04:03.529Z,95.53
2019-03-29T04:05:03.513Z,95.74
2019-03-29T04:06:03.506Z,95.53
2019-03-29T04:07:03.510Z,95.43
2019-03-29T04:08:03.476Z,95.57
2019-03-29T04:09:03.473Z,95.78
2019-03-29T04:10:03.462Z,95.43
2019-03-29T04:11:03.470Z,95.57
2019-03-29T04:12:03.443Z,95.47
2019-03-29T04:13:03.493Z,95.57
2019-03-29T04:14:03.415Z,95.57
2019-03-29T04:15:03.409Z,95.57
2019-03-29T04:16:03.399Z,95.57
2019-03-29T04:17:03.401Z,95.78
2019-03-29T04:18:03.405Z,95.68
2019-03-29T04:19:03.372Z,96.09
2019-03-29T04:20:03.345Z,95.99
2019-03-29T04:21:03.336Z,95.99
2019-03-29T04:22:03.341Z,95.99
2019-03-29T04:23:03.312Z,95.99
2019-03-29T04:24:03.323Z,95.78
2019-03-29T04:25:03.292Z,95.89
2019-03-29T04:26:03.283Z,95.57
2019-03-29T04:27:03.295Z,95.68
2019-03-29T04:28:03.256Z,95.78
2019-03-29T04:29:05.108Z,95.37
2019-03-29T04:30:03.265Z,95.62
2019-03-29T04:31:03.238Z,95.78
2019-03-29T04:32:03.213Z,95.68
2019-03-29T04:33:03.201Z,96.09
2019-03-29T04:34:03.194Z,96.09
2019-03-29T04:35:03.172Z,96.09
2019-03-29T04:36:03.173Z,95.78
2019-03-29T04:37:03.155Z,95.68
2019-03-29T04:38:03.145Z,96.51
2019-03-29T04:39:03.135Z,95.99
2019-03-29T04:40:07.984Z,95.57
2019-03-29T04:41:04.110Z,95.68
2019-03-29T04:42:03.104Z,95.89
2019-03-29T04:43:03.087Z,95.83
2019-03-29T04:44:03.080Z,95.83
2019-03-29T04:45:03.064Z,96.14
2019-03-29T04:46:03.064Z,95.62
2019-03-29T04:47:03.040Z,95.68
2019-03-29T04:48:03.030Z,96.14
2019-03-29T04:49:03.017Z,96.34
2019-03-29T04:50:03.024Z,96.72
2019-03-29T04:51:02.992Z,96.86
2019-03-29T04:52:03.000Z,96.86
2019-03-29T04:53:02.972Z,96.61
2019-03-29T04:54:02.960Z,96.61
2019-03-29T04:55:02.951Z,96.86
2019-03-29T04:56:02.936Z,96.97
2019-03-29T04:57:02.924Z,96.55
2019-03-29T04:58:02.927Z,96.45
2019-03-29T04:59:02.903Z,96.45
2019-03-29T05:00:02.889Z,96.41
2019-03-29T05:01:02.883Z,96.72
2019-03-29T05:02:02.886Z,96.86
2019-03-29T05:03:02.884Z,96.86
2019-03-29T05:04:02.854Z,96.76
2019-03-29T05:05:02.837Z,96.76
2019-03-29T05:06:02.841Z,97.07
2019-03-29T05:07:02.819Z,96.14
2019-03-29T05:08:02.890Z,97.07
2019-03-29T05:09:02.803Z,96.03
2019-03-29T05:10:02.803Z,96.14
2019-03-29T05:11:02.770Z,95.83
2019-03-29T05:12:02.757Z,96.03
2019-03-29T05:13:02.751Z,95.93
2019-03-29T05:14:02.776Z,96.03
2019-03-29T05:15:02.747Z,96.14
2019-03-29T05:16:02.792Z,96.76
2019-03-29T05:17:02.709Z,96.03
2019-03-29T05:18:02.711Z,96.14
2019-03-29T05:19:02.676Z,95.83
2019-03-29T05:20:02.707Z,96.03
2019-03-29T05:21:02.683Z,96.76
2019-03-29T05:22:02.651Z,96.86
2019-03-29T05:23:02.656Z,96.86
2019-03-29T05:24:02.627Z,96.55
2019-03-29T05:25:02.623Z,96.45
2019-03-29T05:26:02.604Z,96.55
2019-03-29T05:27:02.616Z,96.66
2019-03-29T05:28:02.579Z,97.17
2019-03-29T05:29:02.567Z,97.38
2019-03-29T05:30:02.556Z,97.28
2019-03-29T05:31:02.544Z,97.17
2019-03-29T05:32:02.538Z,97.07
2019-03-29T05:33:02.535Z,97.38
2019-03-29T05:34:02.511Z,97.28
2019-03-29T05:35:02.495Z,97.28
2019-03-29T05:36:02.491Z,97.28
2019-03-29T05:37:02.481Z,97.17
2019-03-29T05:38:02.467Z,97.17
2019-03-29T05:39:02.476Z,97.17
2019-03-29T05:40:02.454Z,97.17
2019-03-29T05:41:02.435Z,97.17
2019-03-29T05:42:02.433Z,97.49
2019-03-29T05:43:02.412Z,96.34
2019-03-29T05:44:02.395Z,96.97
2019-03-29T05:45:02.415Z,96.45
2019-03-29T05:46:02.375Z,97.28
2019-03-29T05:47:02.369Z,97.17
2019-03-29T05:48:02.351Z,96.86
2019-03-29T05:49:02.343Z,96.76
2019-03-29T05:50:02.329Z,96.66
2019-03-29T05:51:02.349Z,96.86
2019-03-29T05:52:02.335Z,97.17
2019-03-29T05:53:02.308Z,97.17
2019-03-29T05:54:02.287Z,97.28
2019-03-29T05:55:02.282Z,97.17
2019-03-29T05:56:02.265Z,97.17
2019-03-29T05:57:02.267Z,96.97
2019-03-29T05:58:02.275Z,97.07
2019-03-29T05:59:02.235Z,97.17
2019-03-29T06:00:02.221Z,97.17
2019-03-29T06:01:02.207Z,96.86
2019-03-29T06:02:02.211Z,97.07
2019-03-29T06:03:02.183Z,97.07
2019-03-29T06:04:02.170Z,97.07
2019-03-29T06:05:02.170Z,96.24
2019-03-29T06:06:02.154Z,96.51
2019-03-29T06:07:02.149Z,96.66
2019-03-29T06:08:02.131Z,96.24
2019-03-29T06:09:02.118Z,96.66
2019-03-29T06:10:02.112Z,97.38
2019-03-29T06:11:02.094Z,97.24
2019-03-29T06:12:02.095Z,96.82
2019-03-29T06:13:02.085Z,96.92
2019-03-29T06:14:02.080Z,96.61
2019-03-29T06:15:02.048Z,97.44
2019-03-29T06:16:02.047Z,97.39
2019-03-29T06:17:02.034Z,97.29
2019-03-29T06:18:02.034Z,97.29
2019-03-29T06:19:02.003Z,96.98
2019-03-29T06:20:01.997Z,97.09
2019-03-29T06:21:01.990Z,97.29
2019-03-29T06:22:01.971Z,97.19
2019-03-29T06:23:01.967Z,96.73
2019-03-29T06:24:09.045Z,96.78
2019-03-29T06:25:01.936Z,97.04
2019-03-29T06:26:01.985Z,96.73
2019-03-29T06:27:01.913Z,96.73
2019-03-29T06:28:01.908Z,97.04
2019-03-29T06:29:01.927Z,97.04
2019-03-29T06:30:01.883Z,97.04
2019-03-29T06:31:01.875Z,97.25
2019-03-29T06:32:01.887Z,97.04
2019-03-29T06:33:01.855Z,97.14
2019-03-29T06:34:08.898Z,97.25
2019-03-29T06:35:01.831Z,97.14
2019-03-29T06:36:01.817Z,97.04
2019-03-29T06:37:01.887Z,96.21
2019-03-29T06:38:01.816Z,96.62
2019-03-29T06:39:01.780Z,96.31
2019-03-29T06:40:01.769Z,96.48
2019-03-29T06:41:03.435Z,96.48
2019-03-29T06:42:01.749Z,96.48
2019-03-29T06:43:01.739Z,96.48
2019-03-29T06:44:01.745Z,96.44
2019-03-29T06:45:01.718Z,96.54
2019-03-29T06:46:01.707Z,96.64
2019-03-29T06:47:01.699Z,95.81
2019-03-29T06:48:01.702Z,95.50
2019-03-29T06:49:01.687Z,95.56
2019-03-29T06:50:01.674Z,95.40
2019-03-29T06:51:01.651Z,95.50
2019-03-29T06:52:01.648Z,95.46
2019-03-29T06:53:01.635Z,95.04
2019-03-29T06:54:01.633Z,95.36
2019-03-29T06:55:01.617Z,95.31
2019-03-29T06:56:01.613Z,95.31
2019-03-29T06:57:01.595Z,94.85
2019-03-29T06:58:01.589Z,94.54
2019-03-29T06:59:01.559Z,94.75
2019-03-29T07:00:01.553Z,94.50
2019-03-29T07:01:01.602Z,94.13
2019-03-29T07:02:01.529Z,93.57
2019-03-29T07:03:01.523Z,92.95
2019-03-29T07:04:01.501Z,93.37
2019-03-29T07:05:01.490Z,92.85
2019-03-29T07:06:01.505Z,92.91
2019-03-29T07:07:01.486Z,92.70
2019-03-29T07:08:01.478Z,92.50
2019-03-29T07:09:01.459Z,92.08
2019-03-29T07:10:01.443Z,92.55
2019-03-29T07:11:01.440Z,92.66
2019-03-29T07:12:01.415Z,91.42
2019-03-29T07:13:01.435Z,91.11
2019-03-29T07:14:01.393Z,90.86
2019-03-29T07:15:01.379Z,91.38
2019-03-29T07:16:01.368Z,90.97
2019-03-29T07:17:01.362Z,90.66
2019-03-29T07:18:01.343Z,89.38
2019-03-29T07:19:04.760Z,89.69
2019-03-29T07:20:01.327Z,88.41
2019-03-29T07:21:01.315Z,88.41
2019-03-29T07:22:01.307Z,88.20
2019-03-29T07:23:01.295Z,87.85
2019-03-29T07:24:01.287Z,87.96
2019-03-29T07:25:01.287Z,87.44
2019-03-29T07:26:01.324Z,87.54
2019-03-29T07:27:01.258Z,87.44
2019-03-29T07:28:01.235Z,87.44
2019-03-29T07:29:01.243Z,86.82
2019-03-29T07:30:01.242Z,86.52
2019-03-29T07:31:01.219Z,86.27
2019-03-29T07:32:01.192Z,85.65
2019-03-29T07:33:01.187Z,85.55
2019-03-29T07:34:01.171Z,85.61
2019-03-29T07:35:01.168Z,85.10
2019-03-29T07:36:01.186Z,85.20
2019-03-29T07:37:01.158Z,85.10
2019-03-29T07:38:01.122Z,85.30
2019-03-29T07:39:01.111Z,85.41
2019-03-29T07:40:01.124Z,85.41
2019-03-29T07:41:01.098Z,85.16
2019-03-29T07:42:01.086Z,84.95
2019-03-29T07:43:01.062Z,84.64
2019-03-29T07:44:01.047Z,84.75
2019-03-29T07:45:01.044Z,84.81
2019-03-29T07:46:01.061Z,83.11
2019-03-29T07:47:01.032Z,83.17
2019-03-29T07:48:01.026Z,82.86
2019-03-29T07:49:01.014Z,82.96
2019-03-29T07:50:00.991Z,81.52
2019-03-29T07:51:00.983Z,81.69
2019-03-29T07:52:00.973Z,81.69
2019-03-29T07:53:00.972Z,81.28
2019-03-29T07:54:00.938Z,80.93
2019-03-29T07:55:00.991Z,80.83
2019-03-29T07:56:00.927Z,80.42
2019-03-29T07:57:00.940Z,80.32
2019-03-29T07:58:00.963Z,79.29
2019-03-29T07:59:00.888Z,79.60
2019-03-29T08:00:00.875Z,79.19
2019-03-29T08:01:00.871Z,78.33
2019-03-29T08:02:02.315Z,78.64
2019-03-29T08:03:00.851Z,78.64
2019-03-29T08:04:00.842Z,78.91
2019-03-29T08:05:00.815Z,78.53
2019-03-29T08:06:00.815Z,78.60
2019-03-29T08:07:00.820Z,79.93
2019-03-29T08:08:00.799Z,78.09
2019-03-29T08:09:01.076Z,77.64
2019-03-29T08:10:03.584Z,76.82
2019-03-29T08:11:00.750Z,76.48
2019-03-29T08:12:00.753Z,75.96
2019-03-29T08:13:00.775Z,76.54
2019-03-29T08:14:00.754Z,75.42
2019-03-29T08:15:00.707Z,75.35
2019-03-29T08:16:00.730Z,75.31
2019-03-29T08:17:00.703Z,75.21
2019-03-29T08:18:01.686Z,75.31
2019-03-29T08:19:00.676Z,74.87
2019-03-29T08:20:30.256Z,74.97
2019-03-29T08:21:01.637Z,75.18
2019-03-29T08:22:00.639Z,75.21
2019-03-29T08:23:00.620Z,75.28
2019-03-29T08:24:00.622Z,74.36
2019-03-29T08:25:00.603Z,75.28
2019-03-29T08:26:00.578Z,75.38
2019-03-29T08:27:00.571Z,74.46
2019-03-29T08:28:00.566Z,74.02
2019-03-29T08:29:00.551Z,73.61
2019-03-29T08:30:00.562Z,73.30
2019-03-29T08:31:00.527Z,73.61
2019-03-29T08:32:00.516Z,73.68
2019-03-29T08:33:00.499Z,73.27
2019-03-29T08:34:00.490Z,73.68
2019-03-29T08:35:00.482Z,73.68
2019-03-29T08:36:00.506Z,73.03
2019-03-29T08:37:00.464Z,73.44
2019-03-29T08:38:00.443Z,75.89
2019-03-29T08:39:00.444Z,73.71
2019-03-29T08:40:00.446Z,71.77
2019-03-29T08:41:00.431Z,70.95
2019-03-29T08:42:00.886Z,71.73
2019-03-29T08:43:00.405Z,71.25
2019-03-29T08:44:00.376Z,70.71
2019-03-29T08:45:00.414Z,72.04
2019-03-29T08:46:00.363Z,71.42
2019-03-29T08:47:00.382Z,70.95
2019-03-29T08:48:02.218Z,71.94
2019-03-29T08:49:00.319Z,71.12
2019-03-29T08:50:00.429Z,71.83
2019-03-29T08:51:00.294Z,71.59
2019-03-29T08:52:00.318Z,70.17
2019-03-29T08:53:00.278Z,69.35
2019-03-29T08:54:00.272Z,70.17
2019-03-29T08:55:00.421Z,69.86
2019-03-29T08:56:00.244Z,70.37
2019-03-29T08:57:00.231Z,69.21
2019-03-29T08:58:00.235Z,68.88
2019-03-29T08:59:00.219Z,67.99
2019-03-29T09:00:00.399Z,67.96
2019-03-29T09:01:00.188Z,67.96
2019-03-29T09:02:00.191Z,67.04
2019-03-29T09:03:00.206Z,66.42
2019-03-29T09:04:05.114Z,66.83
2019-03-29T09:05:01.149Z,67.24
2019-03-29T09:06:00.131Z,68.26
2019-03-29T09:07:00.131Z,68.16
2019-03-29T09:08:00.106Z,69.08
2019-03-29T09:09:00.124Z,68.74
2019-03-29T09:10:00.162Z,69.05
2019-03-29T09:11:00.077Z,67.41
2019-03-29T09:12:13.391Z,66.70
2019-03-29T09:13:04.254Z,67.62
2019-03-29T09:14:00.044Z,67.62
2019-03-29T09:15:03.375Z,67.93
2019-03-29T09:16:00.027Z,67.72
2019-03-29T09:17:00.008Z,69.15
2019-03-29T09:18:00.309Z,67.79
2019-03-29T09:18:59.983Z,67.66
2019-03-29T09:19:59.991Z,67.05
2019-03-29T09:21:00.004Z,63.58
2019-03-29T09:21:59.958Z,64.50
2019-03-29T09:22:59.939Z,64.20
2019-03-29T09:23:59.938Z,63.99
2019-03-29T09:24:59.915Z,64.60
2019-03-29T09:25:59.938Z,65.31
2019-03-29T09:26:59.891Z,64.50
2019-03-29T09:27:59.883Z,64.50
2019-03-29T09:28:59.871Z,64.90
2019-03-29T09:29:59.863Z,64.40
2019-03-29T09:30:59.847Z,64.81
2019-03-29T09:31:59.867Z,64.73
2019-03-29T09:32:59.847Z,65.83
2019-03-29T09:33:59.820Z,65.62
2019-03-29T09:34:59.803Z,65.31
2019-03-29T09:35:59.799Z,65.52
2019-03-29T09:37:00.228Z,65.62
2019-03-29T09:37:59.766Z,66.61
2019-03-29T09:38:59.832Z,66.78
2019-03-29T09:39:59.743Z,66.58
2019-03-29T09:40:59.769Z,64.31
2019-03-29T09:41:59.720Z,64.20
2019-03-29T09:43:07.392Z,64.23
2019-03-29T09:44:00.712Z,63.80
2019-03-29T09:44:59.690Z,62.20
2019-03-29T09:46:03.020Z,61.99
2019-03-29T09:46:59.685Z,62.10
2019-03-29T09:47:59.650Z,61.59
2019-03-29T09:48:59.719Z,63.42
2019-03-29T09:49:59.643Z,62.10
2019-03-29T09:50:59.623Z,61.99
2019-03-29T09:51:59.722Z,61.38
2019-03-29T09:53:01.458Z,62.20
2019-03-29T09:53:59.585Z,61.38
2019-03-29T09:54:59.588Z,61.90
2019-03-29T09:55:59.611Z,63.32
2019-03-29T09:56:59.551Z,63.83
2019-03-29T09:57:59.567Z,63.12
2019-03-29T09:58:59.531Z,63.62
2019-03-29T10:00:00.548Z,63.70
2019-03-29T10:00:59.506Z,62.81
2019-03-29T10:01:59.508Z,63.59
2019-03-29T10:02:59.492Z,62.78
2019-03-29T10:03:59.500Z,63.49
2019-03-29T10:04:59.467Z,64.48
2019-03-29T10:05:59.479Z,63.74
2019-03-29T10:06:59.435Z,64.15
2019-03-29T10:07:59.430Z,61.30
2019-03-29T10:08:59.420Z,59.64
2019-03-29T10:09:59.427Z,59.75
2019-03-29T10:10:59.398Z,59.64
2019-03-29T10:11:59.382Z,59.34
2019-03-29T10:12:59.370Z,58.42
2019-03-29T10:13:59.362Z,59.24
2019-03-29T10:14:59.350Z,58.73
2019-03-29T10:15:59.425Z,59.27
2019-03-29T10:16:59.323Z,60.08
2019-03-29T10:17:59.352Z,59.67
2019-03-29T10:18:59.311Z,59.57
2019-03-29T10:19:59.290Z,60.18
2019-03-29T10:20:59.287Z,62.29
2019-03-29T10:21:59.290Z,61.07
2019-03-29T10:22:59.255Z,59.14
2019-03-29T10:23:59.246Z,59.24
2019-03-29T10:25:01.808Z,59.52
2019-03-29T10:25:59.258Z,60.60
2019-03-29T10:26:59.292Z,58.88
2019-03-29T10:27:59.198Z,58.58
2019-03-29T10:28:59.186Z,59.39
2019-03-29T10:29:59.183Z,60.22
2019-03-29T10:30:59.171Z,59.48
2019-03-29T10:31:59.178Z,58.60
2019-03-29T10:32:59.142Z,59.14
2019-03-29T10:33:59.174Z,59.14
2019-03-29T10:34:59.115Z,60.15
2019-03-29T10:35:59.111Z,60.83
2019-03-29T10:36:59.091Z,59.72
2019-03-29T10:37:59.102Z,59.31
2019-03-29T10:38:59.078Z,59.31
2019-03-29T10:39:59.083Z,60.13
2019-03-29T10:40:59.055Z,60.05
2019-03-29T10:41:59.115Z,59.11
2019-03-29T10:42:59.030Z,59.21
2019-03-29T10:43:59.031Z,59.41
2019-03-29T10:44:59.011Z,59.62
2019-03-29T10:45:59.022Z,59.28
2019-03-29T10:46:58.986Z,59.18
2019-03-29T10:47:58.970Z,59.48
2019-03-29T10:48:58.964Z,58.06
2019-03-29T10:49:58.946Z,57.99
2019-03-29T10:50:58.944Z,59.28
2019-03-29T10:51:58.942Z,61.21
2019-03-29T10:52:58.951Z,60.20
2019-03-29T10:53:59.035Z,59.77
2019-03-29T10:54:58.918Z,58.52
2019-03-29T10:55:58.893Z,58.62
2019-03-29T10:56:58.891Z,57.81
2019-03-29T10:57:58.882Z,57.40
2019-03-29T10:58:58.846Z,56.92
2019-03-29T10:59:58.835Z,58.24
2019-03-29T11:00:58.842Z,58.37
2019-03-29T11:01:58.818Z,59.46
2019-03-29T11:02:58.806Z,58.95
2019-03-29T11:03:58.814Z,58.11
2019-03-29T11:04:58.782Z,57.20
2019-03-29T11:05:58.765Z,55.96
2019-03-29T11:06:58.785Z,56.03
2019-03-29T11:07:58.751Z,55.02
2019-03-29T11:08:58.778Z,55.63
2019-03-29T11:09:58.723Z,56.51
2019-03-29T11:10:58.720Z,56.51
2019-03-29T11:11:58.726Z,54.79
2019-03-29T11:13:11.794Z,54.76
2019-03-29T11:13:59.699Z,54.59
2019-03-29T11:14:58.669Z,55.68
2019-03-29T11:15:58.686Z,55.95
2019-03-29T11:16:58.642Z,54.00
2019-03-29T11:17:58.642Z,53.90
2019-03-29T11:18:58.634Z,53.60
2019-03-29T11:19:58.624Z,52.89
2019-03-29T11:20:58.600Z,53.02
2019-03-29T11:21:58.587Z,51.57
2019-03-29T11:22:58.643Z,52.11
2019-03-29T11:23:58.570Z,53.42
2019-03-29T11:24:58.567Z,53.42
2019-03-29T11:25:58.586Z,54.76
2019-03-29T11:26:58.543Z,54.03
2019-03-29T11:27:58.527Z,55.02
2019-03-29T11:28:58.519Z,53.50
2019-03-29T11:29:58.498Z,53.19
2019-03-29T11:30:58.490Z,51.98
2019-03-29T11:31:58.486Z,52.92
2019-03-29T11:32:58.486Z,52.39
2019-03-29T11:33:58.457Z,55.22
2019-03-29T11:34:58.455Z,53.38
2019-03-29T11:35:58.431Z,53.65
2019-03-29T11:36:58.486Z,51.63
2019-03-29T11:37:58.418Z,51.20
2019-03-29T11:38:58.398Z,51.07
2019-03-29T11:39:58.390Z,51.58
2019-03-29T11:40:58.371Z,50.47
2019-03-29T11:41:58.371Z,51.00
2019-03-29T11:42:58.414Z,51.81
2019-03-29T11:43:58.358Z,51.71
2019-03-29T11:44:58.327Z,51.07
2019-03-29T11:45:58.322Z,50.67
2019-03-29T11:46:58.310Z,51.61
2019-03-29T11:48:08.240Z,53.22
2019-03-29T11:48:59.301Z,50.70
2019-03-29T11:49:58.274Z,51.40
2019-03-29T11:50:58.310Z,51.28
2019-03-29T11:51:58.266Z,51.89
2019-03-29T11:52:58.246Z,51.48
2019-03-29T11:53:58.239Z,53.20
2019-03-29T11:54:58.222Z,50.47
2019-03-29T11:55:58.202Z,54.00
2019-03-29T11:56:58.199Z,51.18
2019-03-29T11:57:58.187Z,51.18
2019-03-29T11:58:58.230Z,51.58
2019-03-29T11:59:58.158Z,51.56
2019-03-29T12:00:58.151Z,50.95
2019-03-29T12:01:58.143Z,50.55
2019-03-29T12:02:58.126Z,51.35
2019-03-29T12:03:58.115Z,51.07
2019-03-29T12:04:58.123Z,50.80
2019-03-29T12:05:58.137Z,51.23
2019-03-29T12:06:58.078Z,51.65
2019-03-29T12:07:58.066Z,53.17
2019-03-29T12:08:58.112Z,53.40
2019-03-29T12:09:58.042Z,53.50
2019-03-29T12:10:58.030Z,55.40
2019-03-29T12:11:58.070Z,53.67
2019-03-29T12:12:58.012Z,53.14
2019-03-29T12:13:57.998Z,55.47
2019-03-29T12:14:57.991Z,52.61
2019-03-29T12:15:57.978Z,52.72
2019-03-29T12:16:57.965Z,51.71
2019-03-29T12:17:58.032Z,51.20
2019-03-29T12:18:57.948Z,52.21
2019-03-29T12:19:57.930Z,54.63
2019-03-29T12:20:57.922Z,51.91
2019-03-29T12:21:57.903Z,51.89
2019-03-29T12:22:57.899Z,53.12
2019-03-29T12:23:57.898Z,51.40
2019-03-29T12:24:57.875Z,51.30
2019-03-29T12:25:57.864Z,51.93
2019-03-29T12:26:57.854Z,52.94
2019-03-29T12:27:57.846Z,53.22
2019-03-29T12:28:57.871Z,51.53
2019-03-29T12:29:57.816Z,52.94
2019-03-29T12:30:57.811Z,52.01
2019-03-29T12:31:57.801Z,53.00
2019-03-29T12:32:57.786Z,52.69
2019-03-29T12:33:57.778Z,51.48
2019-03-29T12:34:57.778Z,51.38
2019-03-29T12:35:57.766Z,51.10
2019-03-29T12:36:57.746Z,51.30
2019-03-29T12:37:57.734Z,53.25
2019-03-29T12:38:57.714Z,53.55
2019-03-29T12:39:57.706Z,53.05
2019-03-29T12:40:57.703Z,52.61
2019-03-29T12:41:57.726Z,52.72
2019-03-29T12:42:57.668Z,53.00
2019-03-29T12:43:57.683Z,53.70
2019-03-29T12:44:57.646Z,55.62
2019-03-29T12:45:57.639Z,51.73
2019-03-29T12:46:57.621Z,51.10
2019-03-29T12:47:57.630Z,52.80
2019-03-29T12:48:57.608Z,50.56
2019-03-29T12:49:57.601Z,47.71
2019-03-29T12:50:57.578Z,48.11
2019-03-29T12:51:57.663Z,49.02